Gardenville, PA (18926)

5:56 AM EDT on October 21, 2014 (GMT -0400)
Coldspring | Change Station
CLOSE
Current Station
Personal Weather Station
Location: Doylestown, PA
Elevation: 354 ft
Nearby Weather Stations

Elev 354 ft 40.35 °N, 75.10 °W | Updated 19 seconds ago

Overcast
Overcast
47.5 °F
Feels Like 48 °F
N
0.0
Wind Variable Wind from ESE
Gusts 0.0 mph

Today
High -- | Low -- °F
--% Chance of Precip.
Yesterday
High -- | Low -- °F
Precip. -- in
7:17 AM 6:11 PM
Waning Crescent, 6% visible
Pressure 29.88 in
Visibility 10.0 miles
Clouds Few 4800 ft
Scattered Clouds 6000 ft
Overcast 8000 ft
Windchill 48 °F
Dew Point 46 °F
Humidity 93%
Rainfall 0.00 in
Snow Depth Not available.
UV 0 out of 12
Pollen .70 out of 12
Air Quality Not available.
Flu Activity Sporadic
METAR KDYL 210854Z AUTO 00000KT 10SM FEW048 SCT060 OVC080 09/08 A2988 RMK AO2 RAB16E52 SLP119 P0000 60000 T00940083 58011

More Conditions Fewer Conditions

Pressure 29.88 in
Visibility 10.0 miles
Clouds Few 4800 ft
Scattered Clouds 6000 ft
Overcast 8000 ft
Windchill 48 °F
Dew Point 46 °F
Humidity 93%
Rainfall 0.00 in
Snow Depth Not available.
UV 0 out of 12
Pollen .70 out of 12
Air Quality Not available.
Flu Activity Sporadic
METAR KDYL 210854Z AUTO 00000KT 10SM FEW048 SCT060 OVC080 09/08 A2988 RMK AO2 RAB16E52 SLP119 P0000 60000 T00940083 58011

More Conditions Fewer Conditions

Nowcast | as of 5:12 am EDT on October 21, 2014

Showers...mostly light...will continue moving northeast through east central and northeast Pennsylvania early today as well as northern New Jersey.

×

10-Day Weather Forecast

Almanac

Astronomy

Oct. 21, 2014 Rise Set
Actual Time 7:17 AM EDT 6:11 PM EDT
Civil Twilight 6:49 AM EDT 6:39 PM EDT
Nautical Twilight 6:18 AM EDT 7:11 PM EDT
Astronomical Twilight 5:46 AM EDT 7:42 PM EDT
Moon 4:59 AM EDT 5:04 PM EDT
Length of Visible Light 11h 49m
Length of Day
10h 53m
Tomorrow will be 2m 30s shorter.
Waning Crescent, 6% of the Moon is Illuminated
Today
Waning Crescent
Oct 23
New
Oct 30
First Quarter
Nov 6
Full
Nov 14
Last Quarter

Today's Extremes

State Highs State Lows

Community

WunderPhotos

Upload Photos

1,763,619 photos uploaded!

Nearby

Snow Depth

Station Depth Elevation
No new snow has been reported.

Earthquake Activity

City Distance Mag. Time & Date
No recent earthquake activity has been reported nearby.
Minimum magnitude displayed is 2.5.

Coastal Water Temperatures

Place Temperature
No Stations Reporting

Nearby Weather Stations